Time;durP1;ratioP1;P1;durP2;ratioP2;P2;SDS_P1;SDS_P2;PMS_P1;PMS_P2;Temp;Humidity;BMP_temperature;BMP_pressure;BME280_temperature;BME280_humidity;BME280_pressure;Samples;Min_cycle;Max_cycle;Signal;HPM_P1;HPM_P2
2023/08/20 00:02:01;;;;;;;19.42;7.25;;;;;;;16.77;100.00;101911.97;5029468;28;20022;-86
2023/08/20 00:04:28;;;;;;;20.33;7.30;;;;;;;16.73;100.00;101907.78;5016889;28;20033;-85
2023/08/20 00:06:53;;;;;;;22.45;6.93;;;;;;;16.73;100.00;101909.66;5018826;28;20218;-85
2023/08/20 00:09:19;;;;;;;15.95;6.22;;;;;;;16.71;100.00;101907.06;5026644;28;20112;-86
2023/08/20 00:11:44;;;;;;;16.33;5.90;;;;;;;16.68;100.00;101906.47;5027991;28;20021;-85
2023/08/20 00:14:16;;;;;;;19.30;6.30;;;;;;;16.64;100.00;101903.13;5021406;28;20017;-85
2023/08/20 00:16:42;;;;;;;18.23;6.38;;;;;;;16.64;100.00;101894.97;5023648;28;20068;-85
2023/08/20 00:19:08;;;;;;;19.30;6.60;;;;;;;16.62;100.00;101887.94;5031911;28;20144;-85
2023/08/20 00:21:34;;;;;;;19.17;6.60;;;;;;;16.59;100.00;101889.09;5031004;28;20123;-85
2023/08/20 00:24:00;;;;;;;15.38;5.85;;;;;;;16.59;100.00;101883.66;5048459;28;20021;-85
2023/08/20 00:26:26;;;;;;;17.20;6.10;;;;;;;16.57;100.00;101888.34;5025598;28;20044;-86
2023/08/20 00:28:51;;;;;;;15.38;5.60;;;;;;;16.54;100.00;101894.00;5022713;28;20389;-85
2023/08/20 00:31:16;;;;;;;14.25;5.82;;;;;;;16.51;100.00;101899.69;5049661;28;20029;-87
2023/08/20 00:33:43;;;;;;;19.08;6.32;;;;;;;16.46;100.00;101902.78;5031945;28;20029;-86
2023/08/20 00:36:08;;;;;;;16.27;5.50;;;;;;;16.45;100.00;101916.50;5020957;28;20033;-86
2023/08/20 00:38:34;;;;;;;14.82;5.35;;;;;;;16.45;100.00;101916.50;5037522;28;20079;-86
2023/08/20 00:40:59;;;;;;;15.48;6.07;;;;;;;16.48;100.00;101916.22;5042174;28;20021;-85
2023/08/20 00:43:24;;;;;;;16.38;6.03;;;;;;;16.55;100.00;101923.75;5027318;28;20032;-86
2023/08/20 00:45:50;;;;;;;16.38;5.68;;;;;;;16.59;100.00;101932.50;5041423;28;20028;-85
2023/08/20 00:48:17;;;;;;;18.48;6.00;;;;;;;16.63;100.00;101935.81;5032362;28;20041;-84
2023/08/20 00:50:42;;;;;;;19.30;6.22;;;;;;;16.69;100.00;101938.91;5051449;28;20048;-82
2023/08/20 00:53:11;;;;;;;17.45;5.97;;;;;;;16.77;100.00;101933.69;5065517;28;20023;-81
2023/08/20 00:55:37;;;;;;;17.48;5.28;;;;;;;16.84;100.00;101935.91;5049037;28;20021;-82
2023/08/20 00:58:03;;;;;;;15.90;6.03;;;;;;;16.86;100.00;101939.38;5053540;28;20091;-84
2023/08/20 01:00:28;;;;;;;16.60;5.57;;;;;;;16.85;100.00;101943.94;5071295;28;20097;-83
2023/08/20 01:02:54;;;;;;;15.15;5.25;;;;;;;16.89;100.00;101947.28;5064926;28;20013;-85
2023/08/20 01:05:20;;;;;;;14.68;5.32;;;;;;;16.92;100.00;101956.03;5048917;28;20023;-84
2023/08/20 01:08:07;;;;;;;16.50;5.53;;;;;;;16.98;100.00;101968.25;5066223;28;20055;-81
2023/08/20 01:10:47;;;;;;;15.30;5.50;;;;;;;17.05;100.00;101969.47;5075479;28;20033;-84
2023/08/20 01:13:12;;;;;;;19.63;4.82;;;;;;;17.08;100.00;101977.34;5049622;28;20037;-82
2023/08/20 01:15:38;;;;;;;16.70;5.50;;;;;;;17.10;100.00;101971.78;5053490;28;20027;-81
2023/08/20 01:18:03;;;;;;;12.45;4.60;;;;;;;17.14;100.00;101978.69;5060480;28;20025;-83
2023/08/20 01:20:35;;;;;;;21.40;5.35;;;;;;;17.16;100.00;101973.13;5051513;28;20037;-83
2023/08/20 01:23:03;;;;;;;14.70;4.70;;;;;;;17.20;100.00;101961.03;5068975;28;20041;-83
2023/08/20 01:25:53;;;;;;;14.18;4.78;;;;;;;17.24;100.00;101960.63;5075996;28;20094;-85
2023/08/20 01:28:25;;;;;;;17.15;5.00;;;;;;;17.28;100.00;101955.81;5070155;28;20026;-86
2023/08/20 01:30:52;;;;;;;14.00;4.85;;;;;;;17.29;100.00;101960.25;5047962;28;20068;-85
2023/08/20 01:33:18;;;;;;;17.60;4.75;;;;;;;17.34;100.00;101952.56;5050250;28;20028;-85
2023/08/20 01:35:43;;;;;;;14.70;5.05;;;;;;;17.38;100.00;101956.75;5074351;28;20036;-84
2023/08/20 01:38:09;;;;;;;17.27;5.45;;;;;;;17.42;100.00;101960.06;5047940;28;20024;-85
2023/08/20 01:40:34;;;;;;;18.23;5.63;;;;;;;17.46;100.00;101965.09;5054446;28;20020;-85
2023/08/20 01:43:00;;;;;;;19.33;5.93;;;;;;;17.50;100.00;101962.13;5047624;28;20036;-85
2023/08/20 01:45:26;;;;;;;18.08;5.40;;;;;;;17.51;100.00;101962.03;5070390;28;20056;-86
2023/08/20 01:47:51;;;;;;;22.45;5.90;;;;;;;17.51;100.00;101953.88;5073848;28;20044;-87
2023/08/20 01:50:17;;;;;;;19.67;5.18;;;;;;;17.54;100.00;101963.59;5065432;28;20028;-86
2023/08/20 01:52:42;;;;;;;15.30;5.05;;;;;;;17.56;100.00;101961.63;5063139;28;20032;-84
2023/08/20 01:55:08;;;;;;;19.55;5.68;;;;;;;17.58;100.00;101971.34;5069220;28;20044;-86
2023/08/20 01:57:33;;;;;;;17.80;5.40;;;;;;;17.60;100.00;101963.94;5045353;28;20040;-86
2023/08/20 01:59:58;;;;;;;15.43;5.03;;;;;;;17.62;100.00;101978.25;5026277;28;20029;-78
2023/08/20 02:02:24;;;;;;;13.98;5.03;;;;;;;17.65;100.00;101985.28;5042676;28;20536;-77
2023/08/20 02:04:50;;;;;;;17.40;5.53;;;;;;;17.67;100.00;101993.31;5033369;28;20040;-77
2023/08/20 02:07:15;;;;;;;15.30;4.93;;;;;;;17.67;100.00;101988.72;5051086;28;20028;-77
2023/08/20 02:09:41;;;;;;;15.10;5.35;;;;;;;17.67;100.00;101985.16;5028318;28;20024;-78
2023/08/20 02:12:09;;;;;;;15.75;5.28;;;;;;;17.67;100.00;101985.16;5027620;28;20029;-77
2023/08/20 02:14:35;;;;;;;14.70;4.40;;;;;;;17.66;100.00;101987.03;5045399;28;20021;-77
2023/08/20 02:17:04;;;;;;;15.27;4.82;;;;;;;17.62;100.00;101993.72;5030277;28;20078;-77
2023/08/20 02:19:29;;;;;;;14.68;4.63;;;;;;;17.57;100.00;101993.22;5028151;28;20045;-76
2023/08/20 02:21:55;;;;;;;17.98;5.68;;;;;;;17.53;100.00;101989.06;5030966;28;20047;-77
2023/08/20 02:24:20;;;;;;;17.27;5.15;;;;;;;17.54;100.00;101988.94;5022042;28;20029;-77
2023/08/20 02:26:45;;;;;;;16.58;5.07;;;;;;;17.53;100.00;101994.50;5040472;28;20067;-77
2023/08/20 02:29:11;;;;;;;15.82;5.57;;;;;;;17.54;100.00;101998.94;5028393;28;20020;-78
2023/08/20 02:31:37;;;;;;;13.60;4.85;;;;;;;17.55;100.00;101990.66;5050697;28;20052;-77
2023/08/20 02:34:02;;;;;;;17.02;5.63;;;;;;;17.57;100.00;101990.50;5041059;28;20473;-78
2023/08/20 02:36:29;;;;;;;16.77;5.35;;;;;;;17.58;100.00;101992.25;5025613;28;20484;-77
2023/08/20 02:38:54;;;;;;;16.30;4.95;;;;;;;17.55;100.00;101987.06;5029354;28;20059;-77
2023/08/20 02:41:20;;;;;;;14.75;5.50;;;;;;;17.47;100.00;101983.16;5029866;28;20021;-79
2023/08/20 02:43:45;;;;;;;15.23;4.72;;;;;;;17.39;100.00;101988.38;5026569;28;20032;-78
2023/08/20 02:46:11;;;;;;;20.20;5.20;;;;;;;17.29;100.00;101980.13;5043441;28;20037;-76
2023/08/20 02:48:36;;;;;;;16.02;5.13;;;;;;;17.21;100.00;101981.78;5023045;28;20040;-77
2023/08/20 02:51:02;;;;;;;17.05;5.28;;;;;;;17.13;100.00;101982.44;5027054;28;20021;-78
2023/08/20 02:53:27;;;;;;;17.92;5.30;;;;;;;17.04;100.00;101983.16;5027767;28;20541;-77
2023/08/20 02:55:53;;;;;;;17.02;5.75;;;;;;;16.96;100.00;101985.69;5029448;28;20032;-77
2023/08/20 02:58:18;;;;;;;16.65;5.28;;;;;;;16.86;100.00;101982.81;5026981;28;20035;-77
2023/08/20 03:00:44;;;;;;;16.05;5.00;;;;;;;16.81;100.00;101982.31;5028651;28;20033;-77
2023/08/20 03:03:11;;;;;;;15.32;5.63;;;;;;;16.72;100.00;101979.38;5045968;28;20031;-78
2023/08/20 03:05:36;;;;;;;17.02;5.72;;;;;;;16.64;100.00;101979.13;5032037;28;20051;-76
2023/08/20 03:08:03;;;;;;;15.85;5.22;;;;;;;16.59;100.00;101984.94;5028242;28;20496;-77
2023/08/20 03:10:33;;;;;;;17.27;5.28;;;;;;;16.50;100.00;101982.09;5029600;28;20049;-85
2023/08/20 03:13:02;;;;;;;13.82;5.53;;;;;;;16.43;100.00;101974.44;5032722;28;20032;-86
2023/08/20 03:15:31;;;;;;;16.25;4.88;;;;;;;16.39;100.00;101983.81;5034473;28;20025;-85
2023/08/20 03:17:56;;;;;;;15.88;5.50;;;;;;;16.35;100.00;101970.63;5024637;28;20109;-86
2023/08/20 03:20:21;;;;;;;18.27;5.78;;;;;;;16.32;100.00;101979.00;5041187;28;20588;-85
2023/08/20 03:22:47;;;;;;;15.40;5.75;;;;;;;16.28;100.00;101974.81;5040573;28;20111;-85
2023/08/20 03:25:12;;;;;;;15.73;5.57;;;;;;;16.23;100.00;101977.91;5027358;28;20033;-85
2023/08/20 03:27:38;;;;;;;17.80;6.15;;;;;;;16.20;100.00;101975.44;5041118;28;20021;-84
2023/08/20 03:30:04;;;;;;;16.75;5.32;;;;;;;16.16;100.00;101987.50;5026971;28;20021;-85
2023/08/20 03:32:29;;;;;;;14.02;5.45;;;;;;;16.11;100.00;101974.31;5047095;28;20029;-85
2023/08/20 03:34:55;;;;;;;16.58;5.07;;;;;;;16.08;100.00;101974.56;5036171;28;20031;-84
2023/08/20 03:37:22;;;;;;;15.82;5.75;;;;;;;16.04;100.00;101982.03;5038045;28;20022;-86
2023/08/20 03:39:47;;;;;;;17.33;5.97;;;;;;;16.02;100.00;101970.47;5043050;28;20581;-85
2023/08/20 03:42:12;;;;;;;17.52;5.78;;;;;;;15.98;100.00;101968.97;5028179;28;20116;-85
2023/08/20 03:44:38;;;;;;;13.77;5.38;;;;;;;15.95;100.00;101969.22;5022804;28;20119;-86
2023/08/20 03:47:03;;;;;;;16.90;6.30;;;;;;;15.93;100.00;101978.44;5048244;28;20421;-86
2023/08/20 03:49:29;;;;;;;17.75;6.13;;;;;;;15.90;100.00;101977.72;5024347;28;20032;-85
2023/08/20 03:51:54;;;;;;;19.20;6.43;;;;;;;15.87;100.00;101988.81;5027434;28;20036;-86
2023/08/20 03:54:19;;;;;;;17.42;5.88;;;;;;;15.84;100.00;101990.88;5029785;28;20458;-85
2023/08/20 03:56:45;;;;;;;14.63;5.60;;;;;;;15.78;100.00;101986.78;5027147;28;20021;-86
2023/08/20 03:59:11;;;;;;;17.10;5.97;;;;;;;15.73;100.00;101992.53;5036038;28;20104;-84
2023/08/20 04:01:36;;;;;;;19.33;5.72;;;;;;;15.71;100.00;101985.50;5030126;28;20021;-86
2023/08/20 04:04:08;;;;;;;17.83;5.63;;;;;;;15.67;100.00;101990.31;5024548;28;20036;-86
2023/08/20 04:06:33;;;;;;;19.13;7.25;;;;;;;15.66;100.00;101999.41;5039261;28;20029;-86
2023/08/20 04:08:59;;;;;;;18.42;6.13;;;;;;;15.63;100.00;101996.94;5046004;28;20124;-85
2023/08/20 04:11:24;;;;;;;18.08;5.82;;;;;;;15.61;100.00;101993.50;5026459;28;20027;-86
2023/08/20 04:13:49;;;;;;;19.23;6.25;;;;;;;15.61;100.00;101995.31;5027045;28;20481;-86
2023/08/20 04:16:15;;;;;;;17.05;5.93;;;;;;;15.62;100.00;101999.78;5030553;28;20369;-85
2023/08/20 04:18:40;;;;;;;16.10;5.65;;;;;;;15.61;100.00;102004.34;5044539;28;20017;-86
2023/08/20 04:21:07;;;;;;;17.88;6.43;;;;;;;15.58;100.00;102001.88;5045916;28;20484;-86
2023/08/20 04:23:32;;;;;;;19.88;6.28;;;;;;;15.54;100.00;101997.66;5049432;28;20020;-85
2023/08/20 04:25:58;;;;;;;15.23;5.78;;;;;;;15.51;100.00;101997.88;5029103;28;20445;-86
2023/08/20 04:28:23;;;;;;;16.90;6.35;;;;;;;15.45;100.00;102010.06;5042114;28;20029;-86
2023/08/20 04:30:53;;;;;;;16.15;5.72;;;;;;;15.42;100.00;102012.13;5046401;28;20445;-86
2023/08/20 04:33:19;;;;;;;16.65;5.75;;;;;;;15.37;100.00;102010.63;5028283;28;20039;-86
2023/08/20 04:35:44;;;;;;;15.20;6.22;;;;;;;15.34;100.00;102018.13;5042005;28;20037;-86
2023/08/20 04:38:10;;;;;;;15.77;5.43;;;;;;;15.33;100.00;102011.84;5020060;28;20055;-87
2023/08/20 04:40:35;;;;;;;17.02;6.07;;;;;;;15.34;100.00;102008.16;5046473;28;20111;-86
2023/08/20 04:43:00;;;;;;;16.02;5.65;;;;;;;15.38;100.00;102009.63;5034961;28;20120;-85
2023/08/20 04:45:26;;;;;;;18.58;5.75;;;;;;;15.40;100.00;102005.97;5030619;28;20064;-86
2023/08/20 04:47:51;;;;;;;14.43;5.32;;;;;;;15.38;100.00;101998.81;5047920;28;20079;-86
2023/08/20 04:50:16;;;;;;;17.05;6.05;;;;;;;15.37;100.00;102013.34;5048571;28;20456;-85
2023/08/20 04:52:42;;;;;;;15.32;5.35;;;;;;;15.36;100.00;102011.63;5046893;28;20021;-85
2023/08/20 04:55:08;;;;;;;15.40;5.55;;;;;;;15.41;100.00;102019.38;5032726;28;20495;-85
2023/08/20 04:57:33;;;;;;;18.33;6.03;;;;;;;15.44;100.00;102019.16;5027254;28;20028;-86
2023/08/20 04:59:59;;;;;;;18.02;5.88;;;;;;;15.44;100.00;102018.31;5034158;28;20025;-86
2023/08/20 05:02:24;;;;;;;18.08;6.95;;;;;;;15.44;100.00;102016.44;5046776;28;20070;-86
2023/08/20 05:04:50;;;;;;;17.98;6.70;;;;;;;15.45;100.00;102018.19;5029153;28;20108;-86
2023/08/20 05:07:15;;;;;;;17.70;6.15;;;;;;;15.48;100.00;102023.38;5044849;28;20626;-84
2023/08/20 05:09:40;;;;;;;18.65;6.95;;;;;;;15.54;100.00;102011.19;5044270;28;20064;-86
2023/08/20 05:12:06;;;;;;;18.17;6.25;;;;;;;15.57;100.00;102020.94;5049976;28;20469;-86
2023/08/20 05:14:32;;;;;;;17.58;6.78;;;;;;;15.60;100.00;102018.00;5026257;28;20089;-86
2023/08/20 05:16:57;;;;;;;18.92;6.55;;;;;;;15.62;100.00;102025.00;5029844;28;20030;-86
2023/08/20 05:19:23;;;;;;;18.00;7.13;;;;;;;15.64;100.00;102023.06;5049045;28;20045;-86
2023/08/20 05:21:48;;;;;;;19.23;7.50;;;;;;;15.66;100.00;102031.94;5043161;28;20025;-86
2023/08/20 05:24:14;;;;;;;18.92;6.93;;;;;;;15.65;100.00;102027.50;5032514;28;20025;-86
2023/08/20 05:26:39;;;;;;;17.77;6.43;;;;;;;15.68;100.00;102031.81;5031637;28;20115;-86
2023/08/20 05:29:04;;;;;;;17.90;6.88;;;;;;;15.69;100.00;102037.13;5028248;28;20028;-76
2023/08/20 05:31:30;;;;;;;20.27;7.18;;;;;;;15.71;100.00;102037.88;5038807;28;20026;-76
2023/08/20 05:33:55;;;;;;;19.40;7.57;;;;;;;15.75;100.00;102030.38;5032587;28;20024;-76
2023/08/20 05:36:20;;;;;;;18.63;7.38;;;;;;;15.78;100.00;102040.13;5029594;28;20053;-76
2023/08/20 05:38:46;;;;;;;19.63;6.80;;;;;;;15.82;100.00;102045.22;5046737;28;20503;-76
2023/08/20 05:41:11;;;;;;;19.50;6.53;;;;;;;15.84;100.00;102042.38;5029748;28;20021;-77
2023/08/20 05:43:36;;;;;;;15.25;5.97;;;;;;;15.86;100.00;102035.88;5036344;28;20029;-76
2023/08/20 05:46:02;;;;;;;17.60;6.70;;;;;;;15.92;100.00;102036.41;5025279;28;20456;-77
2023/08/20 05:48:28;;;;;;;17.05;6.80;;;;;;;15.95;100.00;102042.44;5050148;28;20029;-77
2023/08/20 05:50:54;;;;;;;20.65;7.88;;;;;;;16.00;100.00;102042.06;5026102;28;20965;-77
2023/08/20 05:53:19;;;;;;;19.60;7.75;;;;;;;16.04;100.00;102044.41;5028238;28;20433;-77
2023/08/20 05:55:45;;;;;;;18.95;7.50;;;;;;;16.09;100.00;102044.06;5027139;28;20048;-77
2023/08/20 05:58:11;;;;;;;23.85;8.65;;;;;;;16.18;100.00;102040.66;5045334;28;20430;-77
2023/08/20 06:00:36;;;;;;;19.08;7.60;;;;;;;16.26;100.00;102037.31;5045029;28;20078;-76
2023/08/20 06:03:01;;;;;;;20.23;8.13;;;;;;;16.31;100.00;102037.84;5045517;28;20107;-78
2023/08/20 06:05:27;;;;;;;22.30;8.10;;;;;;;16.39;100.00;102039.94;5029982;28;20392;-77
2023/08/20 06:07:52;;;;;;;20.92;7.80;;;;;;;16.46;100.00;102029.44;5023087;28;20127;-77
2023/08/20 06:10:17;;;;;;;20.27;7.70;;;;;;;16.52;100.00;102035.25;5027954;28;20546;-78
2023/08/20 06:12:43;;;;;;;20.88;7.45;;;;;;;16.59;100.00;102041.06;5032524;28;20026;-76
2023/08/20 06:15:08;;;;;;;21.67;7.30;;;;;;;16.65;100.00;102048.72;5050330;28;20046;-78
2023/08/20 06:17:34;;;;;;;21.60;7.38;;;;;;;16.71;100.00;102044.66;5041025;28;20036;-77
2023/08/20 06:19:59;;;;;;;19.95;7.95;;;;;;;16.78;100.00;102044.03;5048838;28;20047;-76
2023/08/20 06:22:24;;;;;;;21.08;8.63;;;;;;;16.85;100.00;102046.25;5033068;28;20029;-77
2023/08/20 06:24:50;;;;;;;24.50;8.13;;;;;;;16.92;100.00;102050.22;5033449;28;20033;-76
2023/08/20 06:27:15;;;;;;;18.88;7.70;;;;;;;16.97;100.00;102048.00;5034066;28;20035;-77
2023/08/20 06:29:40;;;;;;;24.70;9.05;;;;;;;17.03;100.00;102044.78;5044415;28;20036;-77
2023/08/20 06:32:06;;;;;;;18.35;8.20;;;;;;;17.11;100.00;102041.44;5023984;28;20336;-77
2023/08/20 06:34:34;;;;;;;23.10;8.90;;;;;;;17.18;100.00;102047.22;5031899;28;20167;-77
2023/08/20 06:36:59;;;;;;;27.35;10.07;;;;;;;17.25;100.00;102048.47;5041067;28;20033;-77
2023/08/20 06:39:24;;;;;;;24.08;8.35;;;;;;;17.31;100.00;102047.94;5027420;28;20024;-87
2023/08/20 06:41:50;;;;;;;23.20;8.02;;;;;;;17.38;100.00;102054.59;5028124;28;20124;-87
2023/08/20 06:44:15;;;;;;;21.42;7.57;;;;;;;17.47;100.00;102044.81;5046507;28;20496;-86
2023/08/20 06:46:40;;;;;;;29.67;9.00;;;;;;;17.56;100.00;102044.03;5025609;28;20067;-87
2023/08/20 06:49:05;;;;;;;23.23;8.70;;;;;;;17.63;100.00;102047.09;5024210;28;20399;-86
2023/08/20 06:51:31;;;;;;;22.88;8.90;;;;;;;17.67;100.00;102054.00;5048546;28;20029;-85
2023/08/20 06:53:56;;;;;;;20.35;7.45;;;;;;;17.73;100.00;102053.50;5049190;28;20060;-86
2023/08/20 06:56:22;;;;;;;19.77;8.07;;;;;;;17.80;100.00;102054.69;5031619;28;20021;-87
2023/08/20 06:58:47;;;;;;;21.83;8.32;;;;;;;17.90;100.00;102057.50;5033311;28;20022;-86
2023/08/20 07:01:13;;;;;;;24.70;8.10;;;;;;;17.93;100.00;102050.94;5026607;28;20048;-86
2023/08/20 07:03:43;;;;;;;19.42;6.85;;;;;;;17.98;100.00;102055.00;5030080;28;20125;-86
2023/08/20 07:06:10;;;;;;;19.98;7.18;;;;;;;18.04;100.00;102063.63;5041831;28;20109;-86
2023/08/20 07:08:38;;;;;;;22.10;7.18;;;;;;;18.10;100.00;102063.97;5030438;28;20036;-85
2023/08/20 07:11:04;;;;;;;21.60;8.10;;;;;;;18.15;100.00;102064.41;5028909;28;20473;-87
2023/08/20 07:13:29;;;;;;;19.38;7.07;;;;;;;18.21;100.00;102071.19;5032003;28;20083;-85
2023/08/20 07:15:54;;;;;;;24.48;7.70;;;;;;;18.24;100.00;102070.06;5044864;28;20091;-85
2023/08/20 07:18:20;;;;;;;23.65;7.72;;;;;;;18.26;100.00;102071.66;5044936;28;20033;-86
2023/08/20 07:20:45;;;;;;;23.75;7.78;;;;;;;18.31;100.00;102066.66;5024385;28;20051;-86
2023/08/20 07:23:11;;;;;;;19.85;7.68;;;;;;;18.37;100.00;102070.72;5045951;28;20040;-85
2023/08/20 07:25:38;;;;;;;21.55;7.00;;;;;;;18.44;100.00;102069.19;5046723;28;20021;-84
2023/08/20 07:28:08;;;;;;;17.95;5.72;;;;;;;18.47;100.00;102066.19;5033558;28;20073;-86
2023/08/20 07:30:34;;;;;;;20.02;6.60;;;;;;;18.52;100.00;102068.50;5048634;28;20447;-86
2023/08/20 07:32:59;;;;;;;21.05;6.57;;;;;;;18.58;100.00;102068.00;5023652;28;20476;-85
2023/08/20 07:35:25;;;;;;;25.52;6.78;;;;;;;18.65;100.00;102066.47;5032411;28;20024;-86
2023/08/20 07:37:50;;;;;;;17.35;5.63;;;;;;;18.68;100.00;102068.03;5028421;28;20031;-85
2023/08/20 07:40:16;;;;;;;20.67;7.07;;;;;;;18.71;100.00;102067.75;5042984;28;20102;-85
2023/08/20 07:42:41;;;;;;;20.38;6.65;;;;;;;18.76;100.00;102065.50;5027945;28;20048;-85
2023/08/20 07:45:08;;;;;;;19.80;7.25;;;;;;;18.82;100.00;102077.69;5043053;28;20118;-85
2023/08/20 07:47:34;;;;;;;16.23;5.13;;;;;;;18.85;100.00;102074.69;5020950;28;20029;-78
2023/08/20 07:49:59;;;;;;;17.85;6.18;;;;;;;18.89;100.00;102078.91;5028972;28;20033;-82
2023/08/20 07:52:25;;;;;;;17.05;5.25;;;;;;;18.94;100.00;102086.66;5042603;28;20063;-86
2023/08/20 07:54:50;;;;;;;11.00;3.53;;;;;;;18.94;100.00;102089.41;5047877;28;20029;-84
2023/08/20 07:57:16;;;;;;;25.42;7.47;;;;;;;19.01;100.00;102085.13;5046204;28;20120;-76
2023/08/20 07:59:41;;;;;;;20.23;6.70;;;;;;;19.07;100.00;102087.28;5042148;28;20057;-77
2023/08/20 08:02:06;;;;;;;19.60;6.30;;;;;;;19.14;100.00;102095.78;5043554;28;20028;-77
2023/08/20 08:04:33;;;;;;;11.02;3.88;;;;;;;19.15;100.00;102087.47;5046478;28;20063;-77
2023/08/20 08:06:59;;;;;;;18.63;5.70;;;;;;;19.21;100.00;102089.63;5027767;28;20083;-77
2023/08/20 08:09:31;;;;;;;18.75;6.90;;;;;;;19.30;100.00;102089.81;5038657;28;20419;-77
2023/08/20 08:11:58;;;;;;;12.88;4.20;;;;;;;19.30;100.00;102095.28;5027894;28;20052;-77
2023/08/20 08:14:24;;;;;;;19.98;6.38;;;;;;;19.37;100.00;102104.59;5042000;28;20037;-77
2023/08/20 08:16:50;;;;;;;15.88;5.10;;;;;;;19.40;99.66;102104.34;5023031;28;20092;-77
2023/08/20 08:19:16;;;;;;;14.07;4.63;;;;;;;19.44;100.00;102108.47;5030144;28;20202;-77
2023/08/20 08:21:43;;;;;;;19.45;5.25;;;;;;;19.48;99.41;102100.91;5044192;28;20146;-78
2023/08/20 08:24:08;;;;;;;14.98;5.15;;;;;;;19.53;95.81;102102.19;5042507;28;20385;-77
2023/08/20 08:26:35;;;;;;;13.77;4.57;;;;;;;19.58;97.92;102107.22;5024787;28;20025;-73
2023/08/20 08:29:03;;;;;;;15.25;4.93;;;;;;;19.61;96.23;102098.75;5044636;28;20041;-76
2023/08/20 08:31:29;;;;;;;14.00;5.20;;;;;;;19.66;93.90;102101.06;5045939;28;20024;-76
2023/08/20 08:33:54;;;;;;;11.10;4.18;;;;;;;19.70;96.35;102107.97;5026432;28;20033;-77
2023/08/20 08:36:20;;;;;;;17.02;5.65;;;;;;;19.76;93.51;102099.19;5027587;28;20080;-76
2023/08/20 08:38:45;;;;;;;16.42;4.35;;;;;;;19.80;94.07;102103.41;5045934;28;20134;-77
2023/08/20 08:41:12;;;;;;;15.75;4.57;;;;;;;19.87;90.83;102104.56;5021422;28;20021;-77
2023/08/20 08:43:39;;;;;;;16.85;5.40;;;;;;;19.92;90.30;102106.84;5047301;28;20036;-77
2023/08/20 08:46:16;;;;;;;16.48;4.93;;;;;;;19.96;94.66;102104.72;5031030;28;20508;-76
2023/08/20 08:48:44;;;;;;;18.88;5.05;;;;;;;20.03;89.72;102114.03;5009686;28;20037;-78
2023/08/20 08:51:14;;;;;;;11.98;4.15;;;;;;;20.07;91.41;102110.88;5029179;28;20105;-78
2023/08/20 08:53:44;;;;;;;14.15;4.20;;;;;;;20.14;88.98;102111.16;5033366;28;20033;-80
2023/08/20 08:56:10;;;;;;;15.10;4.82;;;;;;;20.15;87.42;102112.88;5044347;28;20486;-77
2023/08/20 08:58:35;;;;;;;16.30;5.07;;;;;;;20.22;88.73;102107.69;5043614;28;20482;-76
2023/08/20 09:01:01;;;;;;;15.18;4.30;;;;;;;20.31;91.25;102108.69;5049465;28;20024;-80
2023/08/20 09:03:26;;;;;;;10.88;3.50;;;;;;;20.34;91.45;102111.16;5028937;28;20545;-82
2023/08/20 09:06:03;;;;;;;8.98;3.22;;;;;;;20.33;93.86;102109.41;5034106;28;20040;-79
2023/08/20 09:08:29;;;;;;;11.10;3.58;;;;;;;20.35;85.48;102112.84;5026817;28;20421;-77
2023/08/20 09:10:57;;;;;;;10.80;3.08;;;;;;;20.46;82.76;102117.31;5040503;28;20022;-85
2023/08/20 09:13:24;;;;;;;8.18;3.00;;;;;;;20.51;84.09;102120.44;5045296;28;20036;-80
2023/08/20 09:15:53;;;;;;;10.35;2.45;;;;;;;20.60;83.74;102125.91;5046049;28;20047;-80
2023/08/20 09:18:19;;;;;;;11.80;2.90;;;;;;;20.62;83.28;102117.56;5034090;28;20387;-79
2023/08/20 09:20:47;;;;;;;11.68;2.92;;;;;;;20.66;78.15;102115.38;5031208;28;20111;-82
2023/08/20 09:23:13;;;;;;;8.77;2.53;;;;;;;20.73;82.07;102116.53;5044563;28;20112;-80
2023/08/20 09:25:39;;;;;;;9.00;2.58;;;;;;;20.78;84.48;102115.09;5041694;28;20518;-81
2023/08/20 09:28:05;;;;;;;9.57;3.00;;;;;;;20.89;84.34;102119.50;5045506;28;20028;-79
2023/08/20 09:30:31;;;;;;;6.10;2.35;;;;;;;20.92;84.40;102124.69;5046538;28;20028;-81
2023/08/20 09:33:11;;;;;;;7.78;2.63;;;;;;;21.04;81.91;102119.88;5032021;28;20450;-79
2023/08/20 09:35:36;;;;;;;11.05;2.83;;;;;;;21.12;84.26;102121.84;5030444;28;20052;-80
2023/08/20 09:38:08;;;;;;;10.15;2.15;;;;;;;21.15;78.12;102127.03;5041362;28;20472;-80
2023/08/20 09:40:34;;;;;;;6.50;2.00;;;;;;;21.22;77.99;102121.81;5047197;28;20059;-81
2023/08/20 09:43:01;;;;;;;6.35;2.08;;;;;;;21.29;78.06;102123.78;5029819;28;20021;-87
2023/08/20 09:45:28;;;;;;;10.32;2.47;;;;;;;21.35;77.87;102127.78;5046123;28;20425;-83
2023/08/20 09:47:56;;;;;;;4.97;1.67;;;;;;;21.33;84.83;102120.75;5043991;28;20035;-84
2023/08/20 09:50:23;;;;;;;7.50;2.15;;;;;;;21.35;75.89;102122.31;5022521;28;20028;-80
2023/08/20 09:52:58;;;;;;;3.42;1.48;;;;;;;21.42;76.11;102122.56;5047158;28;20395;-78
2023/08/20 09:55:29;;;;;;;5.03;1.90;;;;;;;21.47;77.93;102123.81;5048855;28;20033;-82
2023/08/20 09:57:56;;;;;;;11.30;2.17;;;;;;;21.52;77.31;102120.66;5031320;28;20037;-80
2023/08/20 10:00:22;;;;;;;8.88;2.20;;;;;;;21.58;74.03;102127.38;5042462;28;20025;-81
2023/08/20 10:02:48;;;;;;;5.20;1.90;;;;;;;21.59;79.25;102120.91;5047298;28;20359;-79
2023/08/20 10:05:15;;;;;;;3.13;1.77;;;;;;;21.66;72.26;102123.91;5029421;28;20040;-77
2023/08/20 10:07:42;;;;;;;5.72;1.80;;;;;;;21.71;69.23;102121.53;5028676;28;20070;-80
2023/08/20 10:10:11;;;;;;;4.38;1.77;;;;;;;21.75;71.78;102120.22;5019486;28;20060;-75
2023/08/20 10:12:39;;;;;;;2.35;1.27;;;;;;;21.82;68.95;102119.44;5031105;28;20029;-77
2023/08/20 10:15:05;;;;;;;4.10;1.40;;;;;;;21.87;70.33;102121.69;5041663;28;20033;-78
2023/08/20 10:17:34;;;;;;;4.13;1.92;;;;;;;21.92;74.20;102123.97;5043660;28;20033;-78
2023/08/20 10:20:02;;;;;;;7.70;1.88;;;;;;;21.97;66.42;102117.00;5027119;28;20063;-80
2023/08/20 10:22:39;;;;;;;4.15;1.60;;;;;;;22.02;66.70;102115.69;5042248;28;20031;-79
2023/08/20 10:25:09;;;;;;;3.38;1.45;;;;;;;22.10;63.82;102116.63;5020204;28;20029;-78
2023/08/20 10:27:36;;;;;;;6.43;1.70;;;;;;;22.16;68.33;102115.97;5040194;28;20031;-76
2023/08/20 10:30:11;;;;;;;7.25;1.70;;;;;;;22.24;72.33;102112.47;5051913;28;20076;-74
2023/08/20 10:32:56;;;;;;;4.28;1.70;;;;;;;22.20;71.98;102110.19;5049616;28;20436;-75
2023/08/20 10:35:28;;;;;;;2.80;1.48;;;;;;;22.28;67.19;102121.22;5029426;28;20448;-76
2023/08/20 10:38:03;;;;;;;7.00;1.73;;;;;;;22.29;66.04;102114.72;5022927;28;20095;-75
2023/08/20 10:40:53;;;;;;;7.43;1.90;;;;;;;22.36;68.16;102112.22;5043235;28;20119;-75
2023/08/20 10:43:26;;;;;;;7.38;1.67;;;;;;;22.39;72.37;102120.13;5025075;28;20115;-74
2023/08/20 10:46:13;;;;;;;10.32;2.10;;;;;;;22.42;73.54;102109.72;5042420;28;20033;-75
2023/08/20 10:48:39;;;;;;;3.05;1.52;;;;;;;22.47;74.61;102112.81;5044627;28;20541;-74
2023/08/20 10:51:24;;;;;;;2.92;1.50;;;;;;;22.50;72.86;102119.88;5017722;28;20037;-75
2023/08/20 10:54:05;;;;;;;2.88;1.75;;;;;;;22.51;74.79;102113.38;5044771;28;20070;-74
2023/08/20 10:57:01;;;;;;;5.53;1.85;;;;;;;22.53;73.31;102105.84;5022924;28;20447;-73
2023/08/20 10:59:31;;;;;;;8.20;1.90;;;;;;;22.59;69.87;102118.03;5042249;28;20116;-74
2023/08/20 11:01:58;;;;;;;8.00;2.30;;;;;;;22.63;67.00;102109.34;5022669;28;20017;-74
2023/08/20 11:04:34;;;;;;;8.05;1.98;;;;;;;22.68;65.79;102117.94;5025650;28;20067;-75
2023/08/20 11:07:00;;;;;;;5.85;1.83;;;;;;;22.68;71.15;102112.47;5031323;28;20479;-75
2023/08/20 11:09:27;;;;;;;4.63;2.10;;;;;;;22.68;69.96;102115.22;5046579;28;20021;-75
2023/08/20 11:11:53;;;;;;;2.88;1.75;;;;;;;22.70;64.72;102104.09;5043784;28;20029;-75